Time;durP1;ratioP1;P1;durP2;ratioP2;P2;SDS_P1;SDS_P2;PMS_P1;PMS_P2;Temp;Humidity;BMP_temperature;BMP_pressure;BME280_temperature;BME280_humidity;BME280_pressure;Samples;Min_cycle;Max_cycle;Signal;HPM_P1;HPM_P2
2023/06/11 00:01:57;;;;;;;10.53;7.17;;;;;;;;;;5111790;28;20023;-65
2023/06/11 00:04:26;;;;;;;9.60;7.63;;;;;;;;;;5113063;28;20287;-65
2023/06/11 00:06:53;;;;;;;8.95;6.80;;;;;;;;;;5108874;28;20104;-65
2023/06/11 00:09:18;;;;;;;9.25;7.38;;;;;;;;;;5111637;28;20034;-65
2023/06/11 00:11:44;;;;;;;8.82;7.38;;;;;;;;;;5112215;28;20020;-65
2023/06/11 00:14:10;;;;;;;12.82;7.43;;;;;;;;;;5113170;28;20522;-65
2023/06/11 00:16:36;;;;;;;10.70;7.25;;;;;;;;;;5107084;28;20039;-65
2023/06/11 00:19:02;;;;;;;10.35;7.53;;;;;;;;;;5106271;28;20024;-65
2023/06/11 00:21:28;;;;;;;9.90;7.68;;;;;;;;;;5093218;28;20470;-65
2023/06/11 00:23:54;;;;;;;10.98;7.38;;;;;;;;;;5092932;28;20513;-65
2023/06/11 00:26:19;;;;;;;9.45;7.35;;;;;;;;;;5108637;28;20051;-65
2023/06/11 00:28:45;;;;;;;10.13;7.37;;;;;;;;;;5112391;28;20085;-65
2023/06/11 00:31:10;;;;;;;8.70;7.40;;;;;;;;;;5111683;28;20289;-65
2023/06/11 00:33:35;;;;;;;15.43;7.33;;;;;;;;;;5094101;28;20073;-65
2023/06/11 00:36:00;;;;;;;8.47;6.83;;;;;;;;;;5094749;28;20785;-65
2023/06/11 00:38:26;;;;;;;10.70;7.32;;;;;;;;;;5112650;28;20360;-65
2023/06/11 00:40:51;;;;;;;10.13;6.40;;;;;;;;;;5111963;28;20019;-65
2023/06/11 00:43:21;;;;;;;9.25;7.10;;;;;;;;;;5113202;28;20273;-65
2023/06/11 00:45:47;;;;;;;9.68;7.38;;;;;;;;;;5110867;28;20020;-65
2023/06/11 00:48:12;;;;;;;10.70;6.50;;;;;;;;;;5112082;28;20020;-65
2023/06/11 00:50:45;;;;;;;7.78;6.85;;;;;;;;;;5110708;28;20023;-65
2023/06/11 00:53:11;;;;;;;8.70;6.72;;;;;;;;;;5111788;28;20024;-65
2023/06/11 00:55:36;;;;;;;8.75;6.97;;;;;;;;;;5110835;28;20398;-65
2023/06/11 00:58:02;;;;;;;13.27;7.27;;;;;;;;;;5111998;28;20032;-65
2023/06/11 01:00:27;;;;;;;21.13;7.82;;;;;;;;;;5109374;28;20762;-65
2023/06/11 01:03:00;;;;;;;11.07;7.95;;;;;;;;;;5112237;28;20133;-65
2023/06/11 01:05:25;;;;;;;11.60;7.72;;;;;;;;;;5110569;28;20024;-65
2023/06/11 01:07:51;;;;;;;9.75;7.38;;;;;;;;;;5110736;28;20031;-65
2023/06/11 01:10:18;;;;;;;10.75;7.80;;;;;;;;;;5112065;28;20034;-65
2023/06/11 01:12:43;;;;;;;9.18;7.65;;;;;;;;;;5096849;28;20379;-65
2023/06/11 01:15:14;;;;;;;9.65;7.45;;;;;;;;;;5091896;28;20024;-65
2023/06/11 01:18:02;;;;;;;11.63;8.57;;;;;;;;;;5106863;28;20031;-65
2023/06/11 01:20:35;;;;;;;10.65;7.93;;;;;;;;;;5103531;28;20055;-65
2023/06/11 01:23:14;;;;;;;9.63;7.10;;;;;;;;;;5111120;28;20051;-65
2023/06/11 01:25:50;;;;;;;9.45;7.47;;;;;;;;;;5110341;28;20243;-65
2023/06/11 01:28:17;;;;;;;10.65;8.55;;;;;;;;;;5111112;28;20026;-65
2023/06/11 01:30:47;;;;;;;22.83;8.07;;;;;;;;;;5111167;28;20450;-66
2023/06/11 01:33:13;;;;;;;14.48;7.60;;;;;;;;;;5093100;28;20015;-65
2023/06/11 01:35:40;;;;;;;9.48;7.88;;;;;;;;;;5108566;28;20034;-65
2023/06/11 01:38:08;;;;;;;17.40;8.55;;;;;;;;;;5109630;28;20027;-65
2023/06/11 01:40:33;;;;;;;9.30;7.43;;;;;;;;;;5109729;28;20517;-65
2023/06/11 01:42:59;;;;;;;8.50;7.60;;;;;;;;;;5100177;28;20023;-65
2023/06/11 01:45:27;;;;;;;12.93;8.57;;;;;;;;;;5111363;28;20515;-65
2023/06/11 01:47:52;;;;;;;12.68;8.18;;;;;;;;;;5111055;28;20030;-65
2023/06/11 01:50:17;;;;;;;9.88;7.75;;;;;;;;;;5108524;28;20106;-65
2023/06/11 01:52:43;;;;;;;10.38;8.73;;;;;;;;;;5110266;28;20028;-65
2023/06/11 01:55:09;;;;;;;11.00;8.55;;;;;;;;;;5109818;28;20020;-65
2023/06/11 01:57:35;;;;;;;11.43;7.97;;;;;;;;;;5109011;28;20019;-65
2023/06/11 02:00:00;;;;;;;9.25;6.97;;;;;;;;;;5110080;28;20011;-65
2023/06/11 02:02:31;;;;;;;11.77;7.90;;;;;;;;;;5109980;28;20470;-65
2023/06/11 02:04:57;;;;;;;9.63;7.20;;;;;;;;;;5108298;28;20019;-65
2023/06/11 02:07:22;;;;;;;8.07;6.65;;;;;;;;;;5104638;28;20023;-65
2023/06/11 02:09:48;;;;;;;9.52;7.72;;;;;;;;;;5110037;28;20023;-65
2023/06/11 02:12:13;;;;;;;11.00;7.93;;;;;;;;;;5083226;28;20034;-65
2023/06/11 02:14:38;;;;;;;9.87;7.30;;;;;;;;;;5093489;28;20019;-65
2023/06/11 02:17:03;;;;;;;12.13;8.40;;;;;;;;;;5092699;28;20339;-65
2023/06/11 02:19:29;;;;;;;7.07;6.32;;;;;;;;;;5094633;28;20281;-65
2023/06/11 02:21:54;;;;;;;8.68;7.22;;;;;;;;;;5093750;28;20043;-65
2023/06/11 02:24:19;;;;;;;10.07;7.73;;;;;;;;;;5096898;28;20431;-65
2023/06/11 02:26:45;;;;;;;11.13;7.70;;;;;;;;;;5103544;28;20772;-65
2023/06/11 02:29:10;;;;;;;10.70;8.87;;;;;;;;;;5096048;28;20378;-65
2023/06/11 02:31:35;;;;;;;15.27;8.82;;;;;;;;;;5092512;28;20325;-65
2023/06/11 02:34:00;;;;;;;14.90;7.70;;;;;;;;;;5096980;28;20028;-65
2023/06/11 02:36:25;;;;;;;9.63;7.87;;;;;;;;;;5094377;28;20470;-65
2023/06/11 02:38:51;;;;;;;17.50;7.83;;;;;;;;;;5096996;28;20376;-65
2023/06/11 02:41:16;;;;;;;9.83;7.17;;;;;;;;;;5111408;28;20344;-65
2023/06/11 02:43:41;;;;;;;12.73;7.53;;;;;;;;;;5096644;28;20293;-65
2023/06/11 02:46:07;;;;;;;12.27;8.00;;;;;;;;;;5107473;28;20108;-65
2023/06/11 02:48:32;;;;;;;8.98;7.55;;;;;;;;;;5101326;28;20027;-65
2023/06/11 02:50:57;;;;;;;11.55;8.48;;;;;;;;;;5106745;28;20024;-66
2023/06/11 02:53:22;;;;;;;9.60;7.40;;;;;;;;;;5108916;28;20110;-65
2023/06/11 02:55:48;;;;;;;12.83;8.10;;;;;;;;;;5101959;28;20327;-65
2023/06/11 02:58:13;;;;;;;11.63;7.63;;;;;;;;;;5113663;28;20632;-65
2023/06/11 03:00:38;;;;;;;13.07;7.23;;;;;;;;;;5101346;28;20345;-65
2023/06/11 03:03:03;;;;;;;9.93;8.57;;;;;;;;;;5112036;28;20265;-65
2023/06/11 03:05:29;;;;;;;10.60;8.13;;;;;;;;;;5099448;28;20270;-66
2023/06/11 03:07:54;;;;;;;14.27;7.38;;;;;;;;;;5101184;28;20286;-66
2023/06/11 03:10:23;;;;;;;8.48;7.32;;;;;;;;;;5104502;28;20071;-66
2023/06/11 03:12:49;;;;;;;11.00;8.75;;;;;;;;;;5103842;28;20035;-66
2023/06/11 03:15:14;;;;;;;10.88;7.85;;;;;;;;;;5101494;28;20023;-66
2023/06/11 03:17:39;;;;;;;12.63;8.65;;;;;;;;;;5091869;28;20497;-66
2023/06/11 03:20:05;;;;;;;11.03;8.53;;;;;;;;;;5099669;28;20023;-66
2023/06/11 03:22:30;;;;;;;10.13;8.13;;;;;;;;;;5099028;28;20369;-66
2023/06/11 03:24:55;;;;;;;10.43;9.20;;;;;;;;;;5098115;28;20032;-65
2023/06/11 03:27:21;;;;;;;10.50;7.67;;;;;;;;;;5113113;28;20458;-65
2023/06/11 03:29:46;;;;;;;9.60;8.20;;;;;;;;;;5111193;28;20738;-65
2023/06/11 03:32:11;;;;;;;10.63;8.63;;;;;;;;;;5097309;28;20313;-65
2023/06/11 03:34:36;;;;;;;12.27;8.37;;;;;;;;;;5093369;28;20270;-66
2023/06/11 03:37:02;;;;;;;13.20;8.48;;;;;;;;;;5093595;28;20270;-66
2023/06/11 03:39:27;;;;;;;10.48;8.63;;;;;;;;;;5105161;28;20050;-66
2023/06/11 03:41:52;;;;;;;8.93;7.68;;;;;;;;;;5113924;28;20106;-65
2023/06/11 03:44:17;;;;;;;11.20;8.93;;;;;;;;;;5112953;28;20474;-65
2023/06/11 03:46:43;;;;;;;13.27;8.37;;;;;;;;;;5113037;28;20846;-65
2023/06/11 03:49:08;;;;;;;12.88;8.32;;;;;;;;;;5113292;28;20300;-66
2023/06/11 03:51:34;;;;;;;9.63;8.37;;;;;;;;;;5113031;28;20470;-65
2023/06/11 03:53:59;;;;;;;10.90;8.13;;;;;;;;;;5094239;28;20302;-65
2023/06/11 03:56:24;;;;;;;14.85;9.25;;;;;;;;;;5100533;28;20453;-65
2023/06/11 03:58:49;;;;;;;14.95;9.52;;;;;;;;;;5099431;28;20020;-65
2023/06/11 04:01:15;;;;;;;9.23;8.30;;;;;;;;;;5112231;28;20485;-65
2023/06/11 04:03:40;;;;;;;11.10;8.50;;;;;;;;;;5112482;28;20677;-65
2023/06/11 04:06:05;;;;;;;11.00;8.03;;;;;;;;;;5111744;28;20027;-66
2023/06/11 04:08:30;;;;;;;11.47;7.80;;;;;;;;;;5109952;28;20277;-65
2023/06/11 04:10:56;;;;;;;16.05;8.57;;;;;;;;;;5112232;28;20261;-65
2023/06/11 04:13:21;;;;;;;10.55;8.98;;;;;;;;;;5109703;28;20551;-65
2023/06/11 04:15:46;;;;;;;10.85;8.30;;;;;;;;;;5110018;28;20080;-65
2023/06/11 04:18:12;;;;;;;15.27;8.43;;;;;;;;;;5108610;28;20035;-65
2023/06/11 04:20:37;;;;;;;8.20;7.07;;;;;;;;;;5110310;28;20326;-65
2023/06/11 04:23:02;;;;;;;10.47;8.73;;;;;;;;;;5109575;28;20481;-65
2023/06/11 04:25:31;;;;;;;11.00;9.48;;;;;;;;;;5087988;28;20266;-65
2023/06/11 04:27:57;;;;;;;10.15;8.20;;;;;;;;;;5107724;28;20015;-65
2023/06/11 04:30:22;;;;;;;14.20;7.80;;;;;;;;;;5110144;28;20034;-65
2023/06/11 04:32:54;;;;;;;10.35;7.90;;;;;;;;;;5107446;28;20015;-65
2023/06/11 04:35:21;;;;;;;11.55;8.45;;;;;;;;;;5110387;28;20036;-65
2023/06/11 04:37:47;;;;;;;10.52;8.40;;;;;;;;;;5109427;28;20024;-65
2023/06/11 04:40:13;;;;;;;9.30;8.32;;;;;;;;;;5111148;28;20069;-65
2023/06/11 04:42:41;;;;;;;12.02;9.95;;;;;;;;;;5093564;28;20034;-65
2023/06/11 04:45:07;;;;;;;11.60;9.20;;;;;;;;;;5103425;28;20334;-64
2023/06/11 04:47:34;;;;;;;12.77;9.43;;;;;;;;;;5107355;28;20027;-65
2023/06/11 04:50:03;;;;;;;12.25;8.75;;;;;;;;;;5093712;28;20020;-65
2023/06/11 04:52:31;;;;;;;11.00;8.80;;;;;;;;;;5094511;28;20432;-64
2023/06/11 04:54:56;;;;;;;9.35;8.35;;;;;;;;;;5093470;28;20122;-64
2023/06/11 04:57:23;;;;;;;12.18;9.57;;;;;;;;;;5104042;28;20094;-65
2023/06/11 04:59:49;;;;;;;12.40;9.00;;;;;;;;;;5111740;28;20470;-65
2023/06/11 05:02:15;;;;;;;11.45;9.88;;;;;;;;;;5111213;28;20070;-65
2023/06/11 05:04:40;;;;;;;9.63;8.40;;;;;;;;;;5111914;28;20645;-65
2023/06/11 05:07:07;;;;;;;10.10;9.10;;;;;;;;;;5111559;28;20078;-64
2023/06/11 05:09:32;;;;;;;10.75;8.55;;;;;;;;;;5108524;28;20028;-65
2023/06/11 05:11:57;;;;;;;9.10;8.20;;;;;;;;;;5105194;28;20081;-65
2023/06/11 05:14:22;;;;;;;10.13;9.10;;;;;;;;;;5101435;28;20043;-65
2023/06/11 05:16:50;;;;;;;9.32;8.13;;;;;;;;;;5097205;28;20282;-65
2023/06/11 05:19:16;;;;;;;9.80;8.43;;;;;;;;;;5092230;28;20031;-65
2023/06/11 05:21:41;;;;;;;14.02;8.40;;;;;;;;;;5096428;28;20031;-65
2023/06/11 05:24:07;;;;;;;12.90;8.00;;;;;;;;;;5102685;28;20030;-64
2023/06/11 05:26:35;;;;;;;13.00;9.23;;;;;;;;;;5105292;28;20342;-65
2023/06/11 05:29:01;;;;;;;9.90;8.82;;;;;;;;;;5108262;28;20042;-65
2023/06/11 05:31:29;;;;;;;13.75;8.98;;;;;;;;;;5097229;28;20020;-65
2023/06/11 05:33:54;;;;;;;9.38;8.38;;;;;;;;;;5101935;28;20055;-64
2023/06/11 05:36:20;;;;;;;10.10;8.70;;;;;;;;;;5097348;28;20058;-64
2023/06/11 05:38:46;;;;;;;11.80;9.20;;;;;;;;;;5102084;28;20032;-64
2023/06/11 05:41:11;;;;;;;10.75;8.75;;;;;;;;;;5112398;28;20068;-65
2023/06/11 05:43:36;;;;;;;10.33;8.10;;;;;;;;;;5111028;28;20031;-64
2023/06/11 05:46:02;;;;;;;9.97;7.63;;;;;;;;;;5108759;28;20334;-65
2023/06/11 05:48:27;;;;;;;8.88;7.85;;;;;;;;;;5096315;28;20278;-64
2023/06/11 05:50:52;;;;;;;11.75;8.27;;;;;;;;;;5099937;28;20024;-65
2023/06/11 05:53:18;;;;;;;10.20;7.95;;;;;;;;;;5094973;28;20020;-65
2023/06/11 05:55:43;;;;;;;10.20;8.90;;;;;;;;;;5095856;28;20040;-65
2023/06/11 05:58:08;;;;;;;10.73;8.13;;;;;;;;;;5107528;28;20027;-65
2023/06/11 06:00:33;;;;;;;9.10;7.55;;;;;;;;;;5111049;28;20288;-65
2023/06/11 06:03:00;;;;;;;10.27;8.88;;;;;;;;;;5111224;28;20106;-65
2023/06/11 06:05:29;;;;;;;11.52;8.77;;;;;;;;;;5095975;28;20024;-65
2023/06/11 06:07:54;;;;;;;11.70;8.52;;;;;;;;;;5098869;28;20534;-65
2023/06/11 06:10:19;;;;;;;13.38;8.25;;;;;;;;;;5111257;28;20130;-64
2023/06/11 06:12:45;;;;;;;11.33;8.50;;;;;;;;;;5111034;28;20084;-65
2023/06/11 06:15:10;;;;;;;13.30;8.67;;;;;;;;;;5109377;28;20704;-65
2023/06/11 06:17:35;;;;;;;11.40;8.07;;;;;;;;;;5099794;28;20274;-65
2023/06/11 06:20:00;;;;;;;18.77;8.70;;;;;;;;;;5096024;28;20099;-65
2023/06/11 06:22:26;;;;;;;10.40;8.53;;;;;;;;;;5091134;28;20294;-65
2023/06/11 06:24:51;;;;;;;9.45;7.63;;;;;;;;;;5087940;28;20285;-65
2023/06/11 06:27:16;;;;;;;11.80;8.93;;;;;;;;;;5118254;28;20030;-65
2023/06/11 06:29:42;;;;;;;10.30;8.83;;;;;;;;;;5117339;28;20112;-65
2023/06/11 06:32:07;;;;;;;11.43;8.73;;;;;;;;;;5117691;28;20322;-65
2023/06/11 06:34:32;;;;;;;9.23;7.03;;;;;;;;;;5117243;28;20104;-65
2023/06/11 06:36:58;;;;;;;9.83;8.27;;;;;;;;;;5117550;28;20039;-65
2023/06/11 06:39:23;;;;;;;10.15;8.18;;;;;;;;;;5117715;28;20281;-65
2023/06/11 06:41:48;;;;;;;15.75;8.00;;;;;;;;;;5103993;28;20046;-65
2023/06/11 06:44:13;;;;;;;10.57;8.87;;;;;;;;;;5112104;28;20098;-65
2023/06/11 06:46:39;;;;;;;15.30;8.17;;;;;;;;;;5102771;28;20293;-65
2023/06/11 06:49:04;;;;;;;10.68;8.35;;;;;;;;;;5111533;28;20302;-65
2023/06/11 06:51:29;;;;;;;12.50;8.02;;;;;;;;;;5103786;28;20036;-65
2023/06/11 06:53:55;;;;;;;9.88;7.82;;;;;;;;;;5102340;28;20024;-65
2023/06/11 06:56:21;;;;;;;11.68;8.48;;;;;;;;;;5097707;28;20035;-66
2023/06/11 06:58:47;;;;;;;7.90;7.10;;;;;;;;;;5109814;28;20406;-65
2023/06/11 07:01:12;;;;;;;9.65;6.95;;;;;;;;;;5116276;28;20018;-65
2023/06/11 07:03:37;;;;;;;8.87;7.07;;;;;;;;;;5116375;28;20028;-65
2023/06/11 07:06:03;;;;;;;8.05;6.97;;;;;;;;;;5111267;28;20814;-65
2023/06/11 07:08:28;;;;;;;9.00;8.10;;;;;;;;;;5098466;28;20020;-64
2023/06/11 07:10:54;;;;;;;9.40;7.07;;;;;;;;;;5099527;28;20803;-65
2023/06/11 07:13:20;;;;;;;10.57;7.38;;;;;;;;;;5098757;28;20637;-65
2023/06/11 07:15:45;;;;;;;8.38;7.35;;;;;;;;;;5098497;28;20016;-65
2023/06/11 07:18:10;;;;;;;13.65;7.82;;;;;;;;;;5098642;28;20028;-65
2023/06/11 07:20:36;;;;;;;9.23;7.23;;;;;;;;;;5101320;28;20020;-65
2023/06/11 07:23:01;;;;;;;9.10;7.73;;;;;;;;;;5116086;28;20273;-65
2023/06/11 07:25:30;;;;;;;12.03;8.90;;;;;;;;;;5114632;28;20786;-65
2023/06/11 07:27:56;;;;;;;12.02;8.00;;;;;;;;;;5116605;28;20678;-65
2023/06/11 07:30:21;;;;;;;8.90;7.13;;;;;;;;;;5116723;28;20103;-65
2023/06/11 07:32:47;;;;;;;11.05;7.75;;;;;;;;;;5116458;28;20046;-64
2023/06/11 07:35:12;;;;;;;10.02;8.13;;;;;;;;;;5115413;28;20020;-65
2023/06/11 07:37:37;;;;;;;12.77;8.00;;;;;;;;;;5113416;28;20016;-64
2023/06/11 07:40:05;;;;;;;9.95;8.10;;;;;;;;;;5112602;28;20643;-65
2023/06/11 07:42:31;;;;;;;8.95;7.47;;;;;;;;;;5108823;28;20027;-64
2023/06/11 07:44:56;;;;;;;11.35;8.30;;;;;;;;;;5104162;28;20122;-64
2023/06/11 07:47:21;;;;;;;8.02;7.22;;;;;;;;;;5098294;28;20040;-65
2023/06/11 07:49:46;;;;;;;13.80;7.77;;;;;;;;;;5105078;28;20020;-65
2023/06/11 07:52:12;;;;;;;8.13;7.38;;;;;;;;;;5106701;28;20280;-65
2023/06/11 07:54:37;;;;;;;12.47;8.03;;;;;;;;;;5105495;28;20031;-64
2023/06/11 07:57:02;;;;;;;10.57;8.70;;;;;;;;;;5098993;28;20035;-65
2023/06/11 07:59:29;;;;;;;15.15;8.65;;;;;;;;;;5104087;28;20265;-65
2023/06/11 08:01:55;;;;;;;10.48;8.35;;;;;;;;;;5095905;28;20118;-65
2023/06/11 08:04:20;;;;;;;8.55;7.75;;;;;;;;;;5110992;28;20023;-65
2023/06/11 08:06:45;;;;;;;9.20;7.72;;;;;;;;;;5112387;28;20031;-65
2023/06/11 08:09:11;;;;;;;9.47;7.10;;;;;;;;;;5111642;28;20026;-65
2023/06/11 08:11:37;;;;;;;10.68;7.75;;;;;;;;;;5112820;28;20292;-65
2023/06/11 08:14:02;;;;;;;11.50;7.47;;;;;;;;;;5111141;28;20359;-65
2023/06/11 08:16:28;;;;;;;9.90;7.78;;;;;;;;;;5112708;28;20080;-65
2023/06/11 08:18:53;;;;;;;8.80;7.82;;;;;;;;;;5111274;28;20035;-65
2023/06/11 08:21:18;;;;;;;8.88;7.65;;;;;;;;;;5112008;28;20027;-65
2023/06/11 08:23:44;;;;;;;10.80;8.75;;;;;;;;;;5098106;28;20080;-64
2023/06/11 08:26:09;;;;;;;10.32;7.25;;;;;;;;;;5067112;28;20988;-64
2023/06/11 08:28:35;;;;;;;11.23;6.53;;;;;;;;;;5067503;28;20031;-64
2023/06/11 08:31:00;;;;;;;10.32;7.85;;;;;;;;;;5053608;28;20280;-65
2023/06/11 08:33:25;;;;;;;8.35;7.43;;;;;;;;;;5098620;28;20031;-65
2023/06/11 08:35:51;;;;;;;11.57;7.53;;;;;;;;;;5111258;28;20012;-65
2023/06/11 08:38:16;;;;;;;8.07;6.78;;;;;;;;;;5111684;28;20819;-65
2023/06/11 08:40:42;;;;;;;8.97;7.33;;;;;;;;;;5108882;28;20027;-65
2023/06/11 08:43:07;;;;;;;11.95;6.88;;;;;;;;;;5083095;28;20582;-65
2023/06/11 08:45:33;;;;;;;10.65;7.60;;;;;;;;;;5067105;28;20028;-65
2023/06/11 08:48:01;;;;;;;11.93;6.88;;;;;;;;;;5068301;28;20056;-65
2023/06/11 08:50:28;;;;;;;10.02;8.00;;;;;;;;;;5094782;28;20020;-64
2023/06/11 08:52:53;;;;;;;15.05;7.68;;;;;;;;;;5097222;28;20111;-65
2023/06/11 08:55:18;;;;;;;10.77;7.87;;;;;;;;;;5092602;28;20020;-64
2023/06/11 08:57:44;;;;;;;10.67;8.07;;;;;;;;;;5095739;28;20253;-65
2023/06/11 09:00:09;;;;;;;7.63;6.93;;;;;;;;;;5112969;28;20273;-64
2023/06/11 09:02:35;;;;;;;8.60;7.63;;;;;;;;;;5094518;28;20028;-64
2023/06/11 09:05:01;;;;;;;10.18;8.38;;;;;;;;;;5093770;28;20367;-64
2023/06/11 09:07:26;;;;;;;7.70;6.88;;;;;;;;;;5107352;28;20019;-64
2023/06/11 09:09:52;;;;;;;10.30;7.63;;;;;;;;;;5096088;28;20031;-64
2023/06/11 09:12:17;;;;;;;8.48;7.30;;;;;;;;;;5095395;28;20016;-64
2023/06/11 09:14:51;;;;;;;11.00;8.37;;;;;;;;;;5093905;28;20020;-65
2023/06/11 09:17:16;;;;;;;7.80;7.00;;;;;;;;;;5095215;28;20270;-64
2023/06/11 09:19:41;;;;;;;9.30;7.80;;;;;;;;;;5093368;28;20386;-64
2023/06/11 09:22:07;;;;;;;9.32;7.50;;;;;;;;;;5092823;28;20315;-64
2023/06/11 09:24:32;;;;;;;18.85;7.03;;;;;;;;;;5096800;28;20031;-64
2023/06/11 09:26:58;;;;;;;8.47;7.67;;;;;;;;;;5100027;28;20028;-65
2023/06/11 09:29:24;;;;;;;9.85;7.65;;;;;;;;;;5098785;28;20284;-65
2023/06/11 09:32:00;;;;;;;8.52;7.28;;;;;;;;;;5101498;28;20111;-65
2023/06/11 09:34:26;;;;;;;8.38;7.18;;;;;;;;;;5095987;28;20073;-65
2023/06/11 09:36:51;;;;;;;9.83;7.40;;;;;;;;;;5102013;28;20439;-64
2023/06/11 09:39:17;;;;;;;11.65;7.10;;;;;;;;;;5098942;28;20270;-65
2023/06/11 09:41:47;;;;;;;14.43;7.10;;;;;;;;;;5065187;28;20853;-64
2023/06/11 09:44:12;;;;;;;8.68;6.53;;;;;;;;;;5055079;28;20030;-65
2023/06/11 09:46:37;;;;;;;8.80;6.40;;;;;;;;;;5058828;28;20506;-64
2023/06/11 09:49:02;;;;;;;10.85;6.40;;;;;;;;;;5091540;28;20034;-64
2023/06/11 09:51:28;;;;;;;10.63;7.10;;;;;;;;;;5080779;28;20031;-65
2023/06/11 09:53:54;;;;;;;12.45;7.07;;;;;;;;;;5096103;28;20498;-65
2023/06/11 09:56:20;;;;;;;9.65;6.18;;;;;;;;;;5091635;28;20047;-65
2023/06/11 09:58:47;;;;;;;6.53;5.93;;;;;;;;;;5091586;28;20028;-64
2023/06/11 10:01:12;;;;;;;6.97;6.28;;;;;;;;;;5071631;28;20985;-65
2023/06/11 10:03:38;;;;;;;7.23;6.20;;;;;;;;;;5051606;28;20016;-64
2023/06/11 10:06:05;;;;;;;16.80;6.90;;;;;;;;;;5059835;28;20385;-64
2023/06/11 10:08:32;;;;;;;10.80;6.55;;;;;;;;;;5063900;28;20270;-64
2023/06/11 10:11:02;;;;;;;8.77;6.28;;;;;;;;;;5075842;28;20016;-63
2023/06/11 10:13:28;;;;;;;11.48;6.63;;;;;;;;;;5093588;28;20030;-64
2023/06/11 10:15:54;;;;;;;8.38;6.82;;;;;;;;;;5111245;28;20027;-64
2023/06/11 10:18:22;;;;;;;9.15;6.72;;;;;;;;;;5075565;28;20863;-65
2023/06/11 10:20:54;;;;;;;10.38;6.85;;;;;;;;;;5065696;28;20023;-64
2023/06/11 10:23:20;;;;;;;10.43;6.32;;;;;;;;;;5063753;28;20051;-65
2023/06/11 10:25:55;;;;;;;9.63;5.97;;;;;;;;;;5033852;28;20105;-65
2023/06/11 10:28:33;;;;;;;8.02;6.20;;;;;;;;;;5060696;28;20038;-64
2023/06/11 10:30:58;;;;;;;9.00;6.63;;;;;;;;;;5064101;28;20949;-65
2023/06/11 10:33:34;;;;;;;10.90;6.83;;;;;;;;;;5066507;28;20051;-65
2023/06/11 10:36:02;;;;;;;8.23;6.00;;;;;;;;;;5059131;28;20084;-65
2023/06/11 10:38:28;;;;;;;8.70;6.63;;;;;;;;;;5069790;28;20047;-64
2023/06/11 10:41:01;;;;;;;8.07;6.80;;;;;;;;;;5106310;28;20470;-64
2023/06/11 10:43:26;;;;;;;10.82;6.28;;;;;;;;;;5090777;28;20024;-63
2023/06/11 10:46:06;;;;;;;7.87;7.07;;;;;;;;;;5109482;28;20024;-64
2023/06/11 10:48:32;;;;;;;7.18;6.43;;;;;;;;;;5110361;28;20677;-64
2023/06/11 10:51:00;;;;;;;8.37;6.20;;;;;;;;;;5109904;28;20020;-64
2023/06/11 10:53:34;;;;;;;9.68;6.28;;;;;;;;;;5108158;28;20274;-65
2023/06/11 10:56:00;;;;;;;8.40;6.90;;;;;;;;;;5094468;28;20036;-64
2023/06/11 10:58:28;;;;;;;16.40;6.77;;;;;;;;;;5100761;28;20031;-64
2023/06/11 11:00:54;;;;;;;8.65;6.05;;;;;;;;;;5110159;28;20141;-64
2023/06/11 11:03:24;;;;;;;7.80;6.00;;;;;;;;;;5111059;28;20570;-64
2023/06/11 11:05:50;;;;;;;8.18;6.38;;;;;;;;;;5109580;28;20022;-65
2023/06/11 11:08:15;;;;;;;7.18;4.68;;;;;;;;;;5110884;28;20023;-65
2023/06/11 11:10:41;;;;;;;5.78;4.82;;;;;;;;;;5112889;28;20149;-64
2023/06/11 11:13:06;;;;;;;6.57;5.13;;;;;;;;;;5083117;28;20123;-65
2023/06/11 11:15:31;;;;;;;7.27;5.30;;;;;;;;;;5069964;28;20831;-65
2023/06/11 11:17:57;;;;;;;14.77;5.05;;;;;;;;;;5068036;28;20334;-65
2023/06/11 11:20:22;;;;;;;5.10;4.60;;;;;;;;;;5068020;28;20028;-65
2023/06/11 11:22:51;;;;;;;8.75;5.03;;;;;;;;;;5068586;28;20035;-65
2023/06/11 11:25:19;;;;;;;6.55;5.53;;;;;;;;;;5069925;28;20019;-65
2023/06/11 11:27:44;;;;;;;5.95;4.95;;;;;;;;;;5066332;28;20055;-65
2023/06/11 11:30:09;;;;;;;5.13;4.55;;;;;;;;;;5072135;28;20753;-65
2023/06/11 11:32:35;;;;;;;6.32;4.97;;;;;;;;;;5109340;28;20028;-64
2023/06/11 11:35:01;;;;;;;5.90;4.53;;;;;;;;;;5111791;28;20082;-64
2023/06/11 11:37:28;;;;;;;10.20;5.35;;;;;;;;;;5107466;28;20027;-65
2023/06/11 11:39:54;;;;;;;6.50;4.90;;;;;;;;;;5109963;28;20043;-65
2023/06/11 11:42:19;;;;;;;5.80;4.60;;;;;;;;;;5097115;28;20086;-65
2023/06/11 11:44:44;;;;;;;5.55;4.97;;;;;;;;;;5102865;28;20027;-64
2023/06/11 11:47:11;;;;;;;10.13;4.50;;;;;;;;;;5111521;28;20080;-65
2023/06/11 11:49:36;;;;;;;5.90;4.47;;;;;;;;;;5102014;28;20045;-65
2023/06/11 11:52:01;;;;;;;5.03;4.53;;;;;;;;;;5099839;28;20107;-65
2023/06/11 11:54:27;;;;;;;6.40;4.10;;;;;;;;;;5105665;28;20100;-65
2023/06/11 11:57:07;;;;;;;7.23;4.37;;;;;;;;;;5104187;28;20019;-66
2023/06/11 11:59:37;;;;;;;5.20;4.10;;;;;;;;;;5112812;28;20034;-66
2023/06/11 12:02:02;;;;;;;5.28;4.47;;;;;;;;;;5113289;28;20031;-65
2023/06/11 12:04:35;;;;;;;6.50;4.57;;;;;;;;;;5112817;28;20031;-65
2023/06/11 12:07:02;;;;;;;6.20;4.80;;;;;;;;;;5111275;28;20783;-65
2023/06/11 12:09:27;;;;;;;12.55;4.55;;;;;;;;;;5112169;28;20039;-66
2023/06/11 12:11:52;;;;;;;6.70;4.47;;;;;;;;;;5110678;28;20496;-65
2023/06/11 12:14:17;;;;;;;6.03;4.90;;;;;;;;;;5113134;28;20026;-66
2023/06/11 12:16:47;;;;;;;5.23;4.63;;;;;;;;;;5111488;28;20038;-63
2023/06/11 12:19:15;;;;;;;5.80;4.70;;;;;;;;;;5110960;28;20027;-63
2023/06/11 12:21:40;;;;;;;6.53;4.57;;;;;;;;;;5109209;28;20431;-63
2023/06/11 12:24:09;;;;;;;6.38;4.97;;;;;;;;;;5111120;28;20103;-63
2023/06/11 12:26:34;;;;;;;6.57;4.95;;;;;;;;;;5109509;28;20036;-63
2023/06/11 12:29:00;;;;;;;6.90;4.67;;;;;;;;;;5111002;28;20093;-63
2023/06/11 12:31:25;;;;;;;5.50;4.28;;;;;;;;;;5110029;28;20344;-63
2023/06/11 12:33:50;;;;;;;6.57;4.63;;;;;;;;;;5112379;28;20355;-64
2023/06/11 12:36:16;;;;;;;8.73;5.75;;;;;;;;;;5110266;28;20023;-63
2023/06/11 12:38:41;;;;;;;10.10;4.63;;;;;;;;;;5112352;28;20024;-64
2023/06/11 12:41:07;;;;;;;5.93;4.68;;;;;;;;;;5106254;28;20028;-64
2023/06/11 12:43:32;;;;;;;14.50;5.20;;;;;;;;;;5092969;28;20032;-63
2023/06/11 12:45:57;;;;;;;7.13;4.73;;;;;;;;;;5092930;28;20070;-66
2023/06/11 12:48:23;;;;;;;9.23;4.83;;;;;;;;;;5105733;28;20028;-65
2023/06/11 12:50:48;;;;;;;7.40;4.63;;;;;;;;;;5111990;28;20095;-64
2023/06/11 12:53:14;;;;;;;8.10;4.80;;;;;;;;;;5111845;28;20281;-64
2023/06/11 12:55:39;;;;;;;5.33;4.67;;;;;;;;;;5098782;28;20056;-63
2023/06/11 12:58:05;;;;;;;11.17;4.77;;;;;;;;;;5092165;28;20420;-64
2023/06/11 13:00:30;;;;;;;5.45;3.95;;;;;;;;;;5092281;28;20088;-64
2023/06/11 13:02:55;;;;;;;5.53;4.82;;;;;;;;;;5092109;28;20008;-64
2023/06/11 13:05:21;;;;;;;5.45;4.53;;;;;;;;;;5092246;28;20073;-64
2023/06/11 13:07:48;;;;;;;6.22;4.38;;;;;;;;;;5099462;28;20038;-65
2023/06/11 13:10:13;;;;;;;5.50;4.53;;;;;;;;;;5098378;28;20074;-64
2023/06/11 13:12:39;;;;;;;7.15;5.30;;;;;;;;;;5099924;28;20047;-64
2023/06/11 13:15:04;;;;;;;8.90;4.95;;;;;;;;;;5101449;28;20024;-64
2023/06/11 13:17:30;;;;;;;7.78;4.90;;;;;;;;;;5098101;28;20012;-64
2023/06/11 13:19:55;;;;;;;7.95;5.22;;;;;;;;;;5094834;28;20028;-65
2023/06/11 13:22:21;;;;;;;7.57;5.25;;;;;;;;;;5099648;28;20022;-64
2023/06/11 13:24:46;;;;;;;9.35;5.38;;;;;;;;;;5101764;28;20105;-65
2023/06/11 13:27:11;;;;;;;8.07;5.47;;;;;;;;;;5095336;28;20020;-65
2023/06/11 13:29:39;;;;;;;7.93;5.32;;;;;;;;;;5092669;28;20056;-65
2023/06/11 13:32:05;;;;;;;8.20;5.80;;;;;;;;;;5107129;28;20059;-64
2023/06/11 13:34:30;;;;;;;6.40;4.85;;;;;;;;;;5093966;28;20097;-64
2023/06/11 13:36:56;;;;;;;8.23;4.77;;;;;;;;;;5087947;28;20024;-64
2023/06/11 13:39:22;;;;;;;7.22;4.50;;;;;;;;;;5096324;28;20055;-65
2023/06/11 13:41:47;;;;;;;6.35;4.68;;;;;;;;;;5099909;28;20434;-65
2023/06/11 13:44:13;;;;;;;7.15;5.00;;;;;;;;;;5087096;28;20026;-64
2023/06/11 13:46:38;;;;;;;5.73;4.70;;;;;;;;;;5066912;28;20788;-61
2023/06/11 13:49:03;;;;;;;6.85;5.05;;;;;;;;;;5065828;28;20147;-64
2023/06/11 13:51:31;;;;;;;8.35;5.75;;;;;;;;;;5063508;28;20032;-64
2023/06/11 13:53:57;;;;;;;7.68;4.75;;;;;;;;;;5056529;28;20023;-64
2023/06/11 13:56:22;;;;;;;8.05;4.70;;;;;;;;;;5062637;28;20055;-64
2023/06/11 13:58:48;;;;;;;8.90;5.95;;;;;;;;;;5052564;28;20545;-64
2023/06/11 14:01:14;;;;;;;10.18;5.13;;;;;;;;;;5065200;28;20043;-63
2023/06/11 14:03:39;;;;;;;11.63;5.50;;;;;;;;;;5062720;28;20419;-64
2023/06/11 14:06:04;;;;;;;6.90;5.40;;;;;;;;;;5062715;28;20269;-64
2023/06/11 14:08:30;;;;;;;7.70;5.60;;;;;;;;;;5105946;28;20465;-64
2023/06/11 14:10:55;;;;;;;7.35;5.32;;;;;;;;;;5106238;28;20088;-63
2023/06/11 14:13:20;;;;;;;6.40;5.40;;;;;;;;;;5109891;28;20030;-63
2023/06/11 14:15:45;;;;;;;8.93;5.77;;;;;;;;;;5100729;28;20024;-64
2023/06/11 14:18:11;;;;;;;6.67;5.33;;;;;;;;;;5103530;28;20616;-64
2023/06/11 14:20:36;;;;;;;9.93;5.67;;;;;;;;;;5064391;28;20261;-64
2023/06/11 14:23:01;;;;;;;8.40;5.50;;;;;;;;;;5062735;28;21245;-64
2023/06/11 14:25:26;;;;;;;7.07;5.43;;;;;;;;;;5065064;28;20273;-64
2023/06/11 14:27:52;;;;;;;7.27;4.87;;;;;;;;;;5060358;28;20289;-64
2023/06/11 14:30:19;;;;;;;24.02;5.75;;;;;;;;;;5057482;28;20031;-64